Warren, OH (44481)

1:30 PM EDT on July 22, 2017 (GMT -0400)
Northwest Warren | | Change Station
Active Advisory: Areal Flood Advisory Active Notice: Areal Flood Advisory

Elev 915 ft 41.25 °N, 80.85 °W | Updated 6 seconds ago

Overcast
Overcast
72.5 °F
Feels Like 72.5 °F
N
0.0
Wind Variable Wind from SSW
Gusts 0.0 mph

Today
High -- | Low -- °F
--% Chance of Precip.
Yesterday
High -- | Low -- °F
Precip. -- in
Pressure 29.85 in
Visibility 1.5 miles
Clouds Mostly Cloudy 500 ft
Overcast 1300 ft
Dew Point 71 °F
Humidity 94%
Rainfall 0.30 in
Snow Depth Not available.
6:09 AM 8:49 PM
Waning Crescent, 1% visible
SPECI KYNG 221659Z 23016G21KT 1 1/2SM RA BR BKN005 OVC013 22/21 A2985 RMK AO2 P0002 T02220206 $
Pressure 29.85 in
Visibility 1.5 miles
Clouds Mostly Cloudy 500 ft
Overcast 1300 ft
Dew Point 71 °F
Humidity 94%
Rainfall 0.30 in
Snow Depth Not available.
6:09 AM 8:49 PM
Waning Crescent, 1% visible
SPECI KYNG 221659Z 23016G21KT 1 1/2SM RA BR BKN005 OVC013 22/21 A2985 RMK AO2 P0002 T02220206 $

Get Your Daily Forecast Email!

Thanks for signing up!

Be on the lookout for a verification email in your inbox.

You'll start receiving severe weather alerts in your inbox..

×

10-Day Weather Forecast

Almanac

Astronomy

Jul. 22, 2017 Rise Set
Actual Time
Civil Twilight
Nautical Twilight
Astronomical Twilight
Moon
Length of Visible Light
Length of Day
Tomorrow will be .
, % of the Moon is Illuminated

Today's Extremes

State Highs State Lows

Community

WunderPhotos

Category 6

Welcome to Category 6. This is the collective home for Weather Underground's featured writeups by Dr. Jeff Masters (right), Bob Henson (left), Chris Burt, and other regular contributors.

Nearby

Air Quality

  Air Quality AQ Index Pollutant
Not available.

Snow Depth

Station Depth Elevation

Earthquake Activity

City Distance Mag. Time & Date
Minimum magnitude displayed is 2.5.

Coastal Water Temperatures

Place Temperature

Stations

Nearby Weather Stations

Station Location Temp. Windchill Dew Point Humidity Wind Precip. Elev Updated Type
                   

Watches & Warnings

Areal Flood Advisory
Issued: 1:14 PM EDT Jul. 22, 2017 – National Weather Service

The National Weather Service in Cleveland has issued a

* flood advisory for...
northern Trumbull County in northeastern Ohio...

* until 515 PM EDT

* at 112 PM EDT, Doppler radar indicated heavy rain that will cause
minor flooding in the advisory area. One and a half to two inches
of rain have already fallen across portions of the advisory area.

* Some locations that will experience flooding include...
Cortland, Kinsman, North Bloomfield, West Farmington, Bristolville,
Mecca, Johnston and Champion heights.

Precautionary/preparedness actions...

Turn around, don't drown when encountering flooded roads. Most flood
deaths occur in vehicles.


Lat... Lon 4138 8063 4131 8068 4126 8087 4127 8100
      4150 8100 4150 8052 4143 8052


Clark